createdAt,value
2022-08-22T00:00:01.742Z,18.1
2022-08-22T00:01:02.253Z,18.1
2022-08-22T00:02:02.205Z,18.1
2022-08-22T00:02:51.845Z,18.4
2022-08-22T00:03:05.236Z,18.5
2022-08-22T00:03:14.832Z,18.2
2022-08-22T00:04:01.715Z,18.2
2022-08-22T00:05:01.696Z,18.3
2022-08-22T00:06:01.549Z,18.1
2022-08-22T00:07:01.502Z,18.4
2022-08-22T00:08:02.454Z,18.3
2022-08-22T00:09:02.299Z,18.1
2022-08-22T00:10:02.302Z,18.3
2022-08-22T00:11:02.139Z,18.3
2022-08-22T00:12:02.093Z,18.4
2022-08-22T00:13:01.908Z,18.3
2022-08-22T00:14:02.091Z,18.2
2022-08-22T00:15:02.093Z,18.2
2022-08-22T00:16:01.769Z,18.4
2022-08-22T00:17:01.659Z,18.3
2022-08-22T00:18:01.632Z,18.3
2022-08-22T00:19:01.566Z,18.2
2022-08-22T00:20:01.521Z,18.4
2022-08-22T00:21:01.355Z,18.2
2022-08-22T00:22:02.410Z,17.9
2022-08-22T00:23:02.234Z,18
2022-08-22T00:24:02.204Z,18
2022-08-22T00:25:02.038Z,18.2
2022-08-22T00:26:01.993Z,18.5
2022-08-22T00:27:01.914Z,18.2
2022-08-22T00:28:01.771Z,17.9
2022-08-22T00:29:01.708Z,18.1
2022-08-22T00:30:01.678Z,18.1
2022-08-22T00:31:01.965Z,18
2022-08-22T00:32:01.876Z,17.9
2022-08-22T00:33:01.870Z,18.1
2022-08-22T00:34:01.682Z,18.3
2022-08-22T00:35:01.615Z,18.1
2022-08-22T00:36:01.572Z,18.2
2022-08-22T00:37:01.401Z,18.4
2022-08-22T00:38:02.391Z,18.3
2022-08-22T00:39:02.243Z,18.4
2022-08-22T00:40:03.118Z,18.3
2022-08-22T00:41:01.560Z,17.9
2022-08-22T00:42:01.523Z,18.2
2022-08-22T00:43:01.343Z,18.2
2022-08-22T00:44:02.367Z,18.4
2022-08-22T00:45:02.233Z,18.2
2022-08-22T00:46:01.386Z,18.1
2022-08-22T00:47:02.388Z,18.1
2022-08-22T00:48:02.262Z,18
2022-08-22T00:49:01.754Z,18.2
2022-08-22T00:50:01.712Z,18
2022-08-22T00:51:01.663Z,18.6
2022-08-22T00:52:01.568Z,18.2
2022-08-22T00:53:01.410Z,18.1
2022-08-22T00:54:01.455Z,18.3
2022-08-22T00:55:01.899Z,18.3
2022-08-22T00:56:01.865Z,18.3
2022-08-22T00:57:01.816Z,18
2022-08-22T00:58:01.704Z,18.1
2022-08-22T00:59:08.484Z,18.5
2022-08-22T01:00:01.876Z,18.4
2022-08-22T01:01:02.247Z,19.1
2022-08-22T01:02:02.299Z,19.3
2022-08-22T01:03:02.145Z,19
2022-08-22T01:04:02.123Z,18.5
2022-08-22T01:05:01.956Z,18.4
2022-08-22T01:06:01.845Z,18.5
2022-08-22T01:07:01.853Z,18.7
2022-08-22T01:08:01.654Z,18.7
2022-08-22T01:09:01.621Z,18.7
2022-08-22T01:10:01.405Z,18.9
2022-08-22T01:11:02.374Z,18.6
2022-08-22T01:12:02.187Z,18.5
2022-08-22T01:13:02.157Z,18.9
2022-08-22T01:14:01.959Z,18.7
2022-08-22T01:15:01.875Z,18.3
2022-08-22T01:16:02.253Z,18.6
2022-08-22T01:17:02.230Z,18.5
2022-08-22T01:18:02.006Z,18.7
2022-08-22T01:19:02.006Z,18.8
2022-08-22T01:20:01.865Z,19.2
2022-08-22T01:21:01.780Z,19
2022-08-22T01:22:01.697Z,18.6
2022-08-22T01:23:01.531Z,18.6
2022-08-22T01:24:01.504Z,18.4
2022-08-22T01:25:02.535Z,18.3
2022-08-22T01:26:01.714Z,18.4
2022-08-22T01:27:02.129Z,18.5
2022-08-22T01:28:01.969Z,18.6
2022-08-22T01:29:01.397Z,18.7
2022-08-22T01:30:01.699Z,18.9
2022-08-22T01:31:02.069Z,18.5
2022-08-22T01:32:02.100Z,18.5
2022-08-22T01:33:01.915Z,18.4
2022-08-22T01:34:01.842Z,18.3
2022-08-22T01:35:02.326Z,18.5
2022-08-22T01:36:02.164Z,18.3
2022-08-22T01:37:02.146Z,18.4
2022-08-22T01:38:01.977Z,18.4
2022-08-22T01:39:01.908Z,18.5
2022-08-22T01:40:01.944Z,18.4
2022-08-22T01:41:01.999Z,18.3
2022-08-22T01:42:01.425Z,18.2
2022-08-22T01:43:01.464Z,18.3
2022-08-22T01:44:02.363Z,18.2
2022-08-22T01:45:02.173Z,18.3
2022-08-22T01:46:01.341Z,18.6
2022-08-22T01:47:02.345Z,18.7
2022-08-22T01:48:02.144Z,18.6
2022-08-22T01:49:02.048Z,18.6
2022-08-22T01:50:01.963Z,18.4
2022-08-22T01:51:01.968Z,18.4
2022-08-22T01:52:01.915Z,19
2022-08-22T01:53:01.756Z,19
2022-08-22T01:54:01.626Z,19
2022-08-22T01:55:01.562Z,19.1
2022-08-22T01:56:01.396Z,18.8
2022-08-22T01:57:02.349Z,18.8
2022-08-22T01:58:02.232Z,18.7
2022-08-22T01:59:02.124Z,18.7
2022-08-22T02:00:01.418Z,18.5
2022-08-22T02:01:02.324Z,18.8
2022-08-22T02:02:02.320Z,19.3
2022-08-22T02:03:02.147Z,19
2022-08-22T02:04:02.097Z,19.1
2022-08-22T02:05:01.904Z,18.7
2022-08-22T02:06:01.446Z,18.7
2022-08-22T02:07:01.475Z,18.9
2022-08-22T02:08:02.375Z,18.9
2022-08-22T02:09:02.216Z,18.9
2022-08-22T02:10:02.197Z,19
2022-08-22T02:11:02.019Z,19
2022-08-22T02:12:01.938Z,19.3
2022-08-22T02:13:01.537Z,19.4
2022-08-22T02:14:01.499Z,19.4
2022-08-22T02:15:02.428Z,19
2022-08-22T02:16:01.417Z,19.1
2022-08-22T02:17:02.435Z,18.9
2022-08-22T02:18:02.262Z,19.1
2022-08-22T02:19:02.234Z,19.2
2022-08-22T02:20:02.040Z,19.2
2022-08-22T02:21:02.013Z,19.3
2022-08-22T02:22:01.787Z,19
2022-08-22T02:23:01.750Z,19
2022-08-22T02:24:01.685Z,19.1
2022-08-22T02:25:01.519Z,19.3
2022-08-22T02:26:01.473Z,18.7
2022-08-22T02:27:02.410Z,19
2022-08-22T02:28:02.229Z,19.2
2022-08-22T02:29:02.194Z,19
2022-08-22T02:30:02.021Z,18.8
2022-08-22T02:31:02.269Z,19
2022-08-22T02:32:02.188Z,18.9
2022-08-22T02:33:02.049Z,19
2022-08-22T02:34:01.937Z,19.1
2022-08-22T02:35:01.790Z,18.9
2022-08-22T02:36:01.731Z,18.7
2022-08-22T02:37:01.667Z,18.8
2022-08-22T02:38:01.454Z,18.8
2022-08-22T02:39:02.438Z,19.1
2022-08-22T02:40:02.293Z,19.2
2022-08-22T02:41:01.499Z,18.8
2022-08-22T02:42:02.420Z,18.7
2022-08-22T02:43:02.251Z,18.9
2022-08-22T02:44:02.228Z,19.4
2022-08-22T02:45:02.022Z,18.8
2022-08-22T02:46:01.351Z,19.2
2022-08-22T02:47:02.373Z,19.4
2022-08-22T02:48:01.609Z,19.1
2022-08-22T02:49:01.563Z,18.9
2022-08-22T02:50:01.323Z,18.7
2022-08-22T02:51:01.863Z,19.1
2022-08-22T02:52:01.842Z,19.1
2022-08-22T02:53:01.669Z,19.3
2022-08-22T02:54:01.649Z,18.9
2022-08-22T02:55:01.456Z,19
2022-08-22T02:56:01.436Z,19.4
2022-08-22T02:57:02.383Z,19.5
2022-08-22T02:58:02.206Z,19.7
2022-08-22T02:59:02.194Z,19.2
2022-08-22T03:00:02.013Z,19
2022-08-22T03:01:01.819Z,19.2
2022-08-22T03:02:01.996Z,19.7
2022-08-22T03:03:01.846Z,19.8
2022-08-22T03:04:01.700Z,19.9
2022-08-22T03:05:01.703Z,19.5
2022-08-22T03:06:01.921Z,20
2022-08-22T03:07:02.177Z,19.8
2022-08-22T03:08:02.055Z,19
2022-08-22T03:09:01.799Z,19.2
2022-08-22T03:10:01.806Z,18.9
2022-08-22T03:11:01.890Z,19.5
2022-08-22T03:12:01.747Z,19.7
2022-08-22T03:13:01.689Z,19.6
2022-08-22T03:14:01.570Z,19.2
2022-08-22T03:15:01.385Z,19.2
2022-08-22T03:16:01.694Z,19.1
2022-08-22T03:17:01.597Z,18.9
2022-08-22T03:18:01.398Z,18.9
2022-08-22T03:19:02.410Z,19.4
2022-08-22T03:20:02.243Z,19.1
2022-08-22T03:21:02.255Z,19.1
2022-08-22T03:22:02.102Z,19
2022-08-22T03:23:02.069Z,19
2022-08-22T03:24:01.894Z,18.8
2022-08-22T03:25:01.850Z,19.1
2022-08-22T03:26:01.931Z,19.1
2022-08-22T03:27:01.590Z,19.3
2022-08-22T03:28:01.866Z,18.8
2022-08-22T03:29:01.426Z,18.6
2022-08-22T03:30:02.418Z,18.6
2022-08-22T03:31:01.602Z,18.6
2022-08-22T03:32:01.572Z,19
2022-08-22T03:33:01.411Z,19.1
2022-08-22T03:34:02.366Z,18.8
2022-08-22T03:35:02.212Z,18.8
2022-08-22T03:36:02.186Z,18.9
2022-08-22T03:37:01.966Z,18.7
2022-08-22T03:38:01.904Z,19
2022-08-22T03:39:01.890Z,19.1
2022-08-22T03:40:02.146Z,19.3
2022-08-22T03:41:01.402Z,19.3
2022-08-22T03:42:02.394Z,19.3
2022-08-22T03:43:02.227Z,19.2
2022-08-22T03:44:02.142Z,19
2022-08-22T03:45:01.954Z,19.1
2022-08-22T03:46:02.016Z,19.3
2022-08-22T03:47:01.972Z,18.9
2022-08-22T03:48:01.899Z,19
2022-08-22T03:49:01.798Z,19
2022-08-22T03:50:01.743Z,19.1
2022-08-22T03:51:01.584Z,19
2022-08-22T03:52:01.710Z,19
2022-08-22T03:53:01.463Z,19.2
2022-08-22T03:54:01.487Z,19
2022-08-22T03:55:02.404Z,19
2022-08-22T03:56:02.231Z,19
2022-08-22T03:57:02.198Z,18.9
2022-08-22T03:58:02.014Z,18.9
2022-08-22T03:59:01.944Z,19
2022-08-22T04:00:02.247Z,18.8
2022-08-22T04:01:01.463Z,18.7
2022-08-22T04:02:01.749Z,18.8
2022-08-22T04:03:01.537Z,19.1
2022-08-22T04:04:01.509Z,19
2022-08-22T04:05:02.450Z,19.2
2022-08-22T04:06:02.284Z,18.9
2022-08-22T04:07:02.237Z,18.9
2022-08-22T04:08:01.698Z,19.1
2022-08-22T04:09:02.174Z,19
2022-08-22T04:10:01.644Z,18.8
2022-08-22T04:11:02.542Z,18.7
2022-08-22T04:12:02.260Z,18.8
2022-08-22T04:13:02.086Z,18.9
2022-08-22T04:14:02.008Z,18.9
2022-08-22T04:15:01.786Z,18.9
2022-08-22T04:16:02.020Z,18.9
2022-08-22T04:17:01.920Z,18.9
2022-08-22T04:18:01.819Z,18.9
2022-08-22T04:19:01.710Z,18.9
2022-08-22T04:20:01.707Z,19
2022-08-22T04:21:01.566Z,19.1
2022-08-22T04:22:01.627Z,19
2022-08-22T04:23:01.419Z,19
2022-08-22T04:24:02.405Z,18.8
2022-08-22T04:25:04.772Z,18.9
2022-08-22T04:26:02.064Z,18.9
2022-08-22T04:27:01.410Z,18.9
2022-08-22T04:28:02.438Z,18.9
2022-08-22T04:29:02.264Z,19
2022-08-22T04:30:02.265Z,18.9
2022-08-22T04:31:01.514Z,18.9
2022-08-22T04:32:01.553Z,18.8
2022-08-22T04:33:01.382Z,18.8
2022-08-22T04:34:02.402Z,18.8
2022-08-22T04:35:02.249Z,18.8
2022-08-22T04:36:02.251Z,18.8
2022-08-22T04:37:02.067Z,18.9
2022-08-22T04:38:01.993Z,19
2022-08-22T04:39:01.833Z,19
2022-08-22T04:40:01.857Z,19.3
2022-08-22T04:41:04.497Z,19
2022-08-22T04:42:16.250Z,19.1
2022-08-22T04:43:03.603Z,19
2022-08-22T04:44:01.796Z,19
2022-08-22T04:45:01.605Z,19.2
2022-08-22T04:46:01.961Z,19
2022-08-22T04:47:01.978Z,19
2022-08-22T04:48:01.803Z,18.9
2022-08-22T04:49:01.790Z,19
2022-08-22T04:50:02.335Z,18.9
2022-08-22T04:51:02.280Z,19
2022-08-22T04:52:02.126Z,19.2
2022-08-22T04:53:01.994Z,18.9
2022-08-22T04:54:01.928Z,18.9
2022-08-22T04:55:01.883Z,18.9
2022-08-22T04:56:05.356Z,18.9
2022-08-22T04:57:01.537Z,18.9
2022-08-22T04:58:01.505Z,19.1
2022-08-22T04:59:03.025Z,19
2022-08-22T05:00:01.998Z,18.9
2022-08-22T05:01:02.285Z,18.9
2022-08-22T05:02:02.297Z,18.9
2022-08-22T05:03:02.311Z,18.8
2022-08-22T05:04:02.255Z,19.2
2022-08-22T05:05:02.054Z,19
2022-08-22T05:06:02.038Z,18.9
2022-08-22T05:07:01.876Z,19
2022-08-22T05:08:01.839Z,19.1
2022-08-22T05:09:02.430Z,19.1
2022-08-22T05:10:09.251Z,19
2022-08-22T05:11:01.348Z,18.9
2022-08-22T05:12:02.313Z,18.9
2022-08-22T05:13:02.117Z,18.9
2022-08-22T05:14:02.081Z,19.2
2022-08-22T05:15:01.992Z,19.3
2022-08-22T05:16:01.871Z,19.1
2022-08-22T05:17:02.135Z,19.1
2022-08-22T05:18:02.099Z,19.1
2022-08-22T05:19:01.983Z,19.3
2022-08-22T05:20:01.921Z,19.1
2022-08-22T05:21:01.819Z,19
2022-08-22T05:22:02.171Z,19
2022-08-22T05:23:02.104Z,19
2022-08-22T05:24:01.356Z,19
2022-08-22T05:25:02.334Z,19
2022-08-22T05:26:02.147Z,18.9
2022-08-22T05:27:02.101Z,19
2022-08-22T05:28:01.964Z,19
2022-08-22T05:29:01.886Z,19.2
2022-08-22T05:30:01.846Z,19.1
2022-08-22T05:31:01.790Z,19
2022-08-22T05:32:01.767Z,19.1
2022-08-22T05:33:01.677Z,19.4
2022-08-22T05:34:01.466Z,19.1
2022-08-22T05:35:02.432Z,19.5
2022-08-22T05:36:02.259Z,19.3
2022-08-22T05:37:02.195Z,19.5
2022-08-22T05:38:02.027Z,19.4
2022-08-22T05:39:01.897Z,19.5
2022-08-22T05:40:01.875Z,19.3
2022-08-22T05:41:01.998Z,19.4
2022-08-22T05:42:01.969Z,19.3
2022-08-22T05:43:01.857Z,19.5
2022-08-22T05:44:01.740Z,19.4
2022-08-22T05:45:01.797Z,19.6
2022-08-22T05:46:02.009Z,19.3
2022-08-22T05:47:02.049Z,19.2
2022-08-22T05:48:01.933Z,19.2
2022-08-22T05:49:01.791Z,19.3
2022-08-22T05:50:01.785Z,19.7
2022-08-22T05:51:01.575Z,19.5
2022-08-22T05:52:01.560Z,19
2022-08-22T05:53:01.371Z,19.4
2022-08-22T05:54:02.284Z,19.4
2022-08-22T05:55:02.114Z,19.2
2022-08-22T05:56:02.023Z,19.5
2022-08-22T05:57:04.948Z,19.7
2022-08-22T05:58:01.752Z,19.7
2022-08-22T05:59:01.707Z,19.4
2022-08-22T06:00:01.509Z,19.2
2022-08-22T06:01:01.689Z,19.2
2022-08-22T06:02:01.740Z,19.1
2022-08-22T06:03:01.872Z,19.2
2022-08-22T06:04:01.827Z,19.2
2022-08-22T06:05:01.710Z,19.5
2022-08-22T06:06:01.568Z,19.4
2022-08-22T06:07:01.523Z,19.3
2022-08-22T06:08:01.457Z,19.2
2022-08-22T06:09:01.446Z,19.1
2022-08-22T06:10:02.366Z,19.1
2022-08-22T06:11:02.176Z,19.1
2022-08-22T06:12:02.154Z,19.2
2022-08-22T06:13:01.975Z,19.2
2022-08-22T06:14:02.180Z,19.1
2022-08-22T06:15:01.616Z,19
2022-08-22T06:16:01.929Z,19.1
2022-08-22T06:17:01.968Z,19
2022-08-22T06:18:01.777Z,18.9
2022-08-22T06:19:01.662Z,19
2022-08-22T06:20:01.580Z,19
2022-08-22T06:21:01.435Z,18.9
2022-08-22T06:22:02.374Z,18.9
2022-08-22T06:23:02.206Z,18.8
2022-08-22T06:24:02.163Z,19.1
2022-08-22T06:25:01.952Z,19
2022-08-22T06:26:01.880Z,18.9
2022-08-22T06:27:01.808Z,18.7
2022-08-22T06:28:01.623Z,18.9
2022-08-22T06:29:01.600Z,18.9
2022-08-22T06:30:01.418Z,18.9
2022-08-22T06:31:01.515Z,18.9
2022-08-22T06:32:01.486Z,18.9
2022-08-22T06:33:02.411Z,19
2022-08-22T06:34:01.710Z,19
2022-08-22T06:35:01.713Z,18.9
2022-08-22T06:36:01.631Z,19
2022-08-22T06:37:01.577Z,19
2022-08-22T06:38:01.438Z,19
2022-08-22T06:39:01.471Z,19.1
2022-08-22T06:40:02.492Z,19.4
2022-08-22T06:41:01.574Z,19.2
2022-08-22T06:42:01.540Z,19.2
2022-08-22T06:43:01.452Z,19.2
2022-08-22T06:44:02.432Z,19.2
2022-08-22T06:45:02.264Z,19.2
2022-08-22T06:46:01.693Z,19.3
2022-08-22T06:47:01.723Z,19.1
2022-08-22T06:48:01.664Z,19.2
2022-08-22T06:49:01.477Z,19.1
2022-08-22T06:50:01.503Z,19.3
2022-08-22T06:51:01.356Z,19.3
2022-08-22T06:52:02.368Z,19.3
2022-08-22T06:53:02.205Z,19.3
2022-08-22T06:54:02.179Z,19.3
2022-08-22T06:55:02.040Z,19.3
2022-08-22T06:56:01.931Z,19.4
2022-08-22T06:57:01.965Z,19.2
2022-08-22T06:58:01.798Z,19
2022-08-22T06:59:01.767Z,19.3
2022-08-22T07:00:01.719Z,19.1
2022-08-22T07:01:04.043Z,19.1
2022-08-22T07:02:01.460Z,19.1
2022-08-22T07:03:01.499Z,19.1
2022-08-22T07:04:02.457Z,19.1
2022-08-22T07:05:02.302Z,19.2
2022-08-22T07:06:02.291Z,19.2
2022-08-22T07:07:02.158Z,19
2022-08-22T07:08:02.121Z,19.1
2022-08-22T07:09:06.211Z,19.3
2022-08-22T07:10:02.109Z,19.3
2022-08-22T07:11:02.093Z,19.3
2022-08-22T07:12:01.971Z,19.5
2022-08-22T07:13:01.953Z,19.4
2022-08-22T07:14:01.951Z,19.5
2022-08-22T07:15:01.820Z,19.5
2022-08-22T07:16:02.035Z,19.3
2022-08-22T07:17:01.996Z,19.1
2022-08-22T07:18:02.299Z,19.1
2022-08-22T07:19:02.140Z,19
2022-08-22T07:20:02.122Z,19.2
2022-08-22T07:21:01.960Z,19.2
2022-08-22T07:22:01.375Z,19
2022-08-22T07:23:02.376Z,18.9
2022-08-22T07:24:02.199Z,18.9
2022-08-22T07:25:02.212Z,19
2022-08-22T07:26:02.021Z,18.9
2022-08-22T07:27:02.035Z,18.8
2022-08-22T07:28:03.808Z,18.8
2022-08-22T07:29:02.302Z,18.7
2022-08-22T07:30:01.623Z,18.8
2022-08-22T07:31:02.131Z,18.9
2022-08-22T07:32:01.893Z,18.8
2022-08-22T07:33:15.339Z,18.9
2022-08-22T07:34:01.984Z,19
2022-08-22T07:35:01.970Z,19.1
2022-08-22T07:36:01.837Z,19.2
2022-08-22T07:37:01.801Z,19.1
2022-08-22T07:38:01.772Z,19
2022-08-22T07:39:01.713Z,18.9
2022-08-22T07:40:01.974Z,18.8
2022-08-22T07:41:02.100Z,18.8
2022-08-22T07:42:01.943Z,18.9
2022-08-22T07:43:01.919Z,18.8
2022-08-22T07:44:01.882Z,18.6
2022-08-22T07:45:01.816Z,18.6
2022-08-22T07:46:02.277Z,18.7
2022-08-22T07:47:02.396Z,18.7
2022-08-22T07:48:02.374Z,18.6
2022-08-22T07:49:09.317Z,18.7
2022-08-22T07:50:02.039Z,18.6
2022-08-22T07:51:01.992Z,18.8
2022-08-22T07:52:01.843Z,19
2022-08-22T07:53:01.729Z,18.5
2022-08-22T07:54:01.731Z,18.7
2022-08-22T07:55:01.595Z,18.9
2022-08-22T07:56:01.578Z,18.8
2022-08-22T07:57:01.402Z,18.6
2022-08-22T07:58:03.897Z,18.7
2022-08-22T07:59:02.450Z,18.7
2022-08-22T08:00:01.604Z,18.7
2022-08-22T08:01:02.008Z,18.6
2022-08-22T08:02:02.149Z,18.6
2022-08-22T08:03:01.963Z,18.6
2022-08-22T08:04:01.954Z,18.5
2022-08-22T08:05:01.967Z,18.3
2022-08-22T08:06:01.766Z,18.5
2022-08-22T08:07:01.742Z,18.3
2022-08-22T08:08:01.695Z,18.4
2022-08-22T08:09:01.538Z,18.4
2022-08-22T08:10:01.499Z,18.3
2022-08-22T08:11:01.701Z,18.6
2022-08-22T08:12:01.677Z,18.7
2022-08-22T08:13:02.139Z,18.7
2022-08-22T08:14:01.795Z,18.6
2022-08-22T08:15:01.754Z,18.6
2022-08-22T08:16:02.007Z,19
2022-08-22T08:17:01.895Z,19.2
2022-08-22T08:18:01.910Z,18.8
2022-08-22T08:19:01.791Z,19.2
2022-08-22T08:20:01.726Z,19
2022-08-22T08:21:01.760Z,19
2022-08-22T08:22:02.397Z,18.7
2022-08-22T08:23:02.282Z,18.7
2022-08-22T08:24:02.225Z,18.6
2022-08-22T08:25:01.370Z,19
2022-08-22T08:26:02.382Z,18.8
2022-08-22T08:27:02.230Z,18.6
2022-08-22T08:28:02.347Z,19
2022-08-22T08:29:01.450Z,19
2022-08-22T08:30:02.405Z,19.3
2022-08-22T08:31:01.487Z,19.6
2022-08-22T08:32:01.494Z,18.8
2022-08-22T08:33:24.104Z,18.8
2022-08-22T08:34:01.459Z,18.7
2022-08-22T08:35:01.464Z,18.7
2022-08-22T08:36:02.227Z,18.5
2022-08-22T08:37:01.692Z,18.6
2022-08-22T08:38:01.681Z,18.6
2022-08-22T08:39:01.501Z,19
2022-08-22T08:40:01.590Z,19.1
2022-08-22T08:41:01.714Z,19.1
2022-08-22T08:42:01.561Z,19.2
2022-08-22T08:43:01.403Z,19.1
2022-08-22T08:44:02.395Z,19
2022-08-22T08:45:02.235Z,18.8
2022-08-22T08:46:01.508Z,18.9
2022-08-22T08:47:02.348Z,19.1
2022-08-22T08:48:02.211Z,18.9
2022-08-22T08:49:02.044Z,19.1
2022-08-22T08:50:01.320Z,19.3
2022-08-22T08:51:02.309Z,19.1
2022-08-22T08:52:02.345Z,19.5
2022-08-22T08:53:02.202Z,19.3
2022-08-22T08:54:02.048Z,19
2022-08-22T08:55:02.046Z,19.1
2022-08-22T08:56:01.355Z,18.8
2022-08-22T08:57:02.410Z,19.1
2022-08-22T08:58:05.167Z,18.9
2022-08-22T08:59:01.813Z,18.9
2022-08-22T09:00:02.053Z,18.9
2022-08-22T09:01:02.234Z,18.8
2022-08-22T09:02:01.355Z,18.7
2022-08-22T09:03:06.449Z,18.7
2022-08-22T09:04:02.143Z,18.6
2022-08-22T09:05:01.801Z,19
2022-08-22T09:06:01.745Z,18.9
2022-08-22T09:07:01.787Z,19
2022-08-22T09:08:02.202Z,18.9
2022-08-22T09:09:02.087Z,19
2022-08-22T09:10:02.303Z,18.9
2022-08-22T09:11:02.113Z,18.7
2022-08-22T09:12:02.046Z,18.7
2022-08-22T09:13:12.016Z,18.7
2022-08-22T09:14:01.749Z,18.4
2022-08-22T09:15:01.737Z,18.4
2022-08-22T09:16:04.683Z,18.8
2022-08-22T09:17:02.250Z,18.6
2022-08-22T09:18:02.217Z,18.7
2022-08-22T09:19:01.468Z,18.5
2022-08-22T09:20:01.525Z,19
2022-08-22T09:21:02.088Z,18.6
2022-08-22T09:22:01.447Z,18.6
2022-08-22T09:23:01.541Z,18.8
2022-08-22T09:24:01.380Z,19
2022-08-22T09:25:05.380Z,18.8
2022-08-22T09:26:02.261Z,18.7
2022-08-22T09:27:01.720Z,18.7
2022-08-22T09:28:01.770Z,18.7
2022-08-22T09:29:01.404Z,19.1
2022-08-22T09:30:02.425Z,19.2
2022-08-22T09:31:01.359Z,19
2022-08-22T09:32:01.754Z,18.9
2022-08-22T09:33:01.768Z,19.1
2022-08-22T09:34:01.540Z,19
2022-08-22T09:35:02.262Z,19
2022-08-22T09:36:01.511Z,19
2022-08-22T09:37:02.515Z,18.7
2022-08-22T09:38:01.852Z,18.6
2022-08-22T09:39:01.764Z,18.6
2022-08-22T09:40:02.359Z,18.8
2022-08-22T09:41:02.283Z,18.6
2022-08-22T09:42:02.410Z,18.7
2022-08-22T09:43:01.963Z,19.1
2022-08-22T09:44:02.027Z,19.4
2022-08-22T09:45:01.551Z,19.2
2022-08-22T09:46:01.966Z,19.2
2022-08-22T09:47:02.192Z,19.2
2022-08-22T09:48:07.376Z,19.2
2022-08-22T09:49:02.288Z,19.3
2022-08-22T09:50:02.300Z,18.9
2022-08-22T09:51:19.968Z,19.1
2022-08-22T09:52:05.225Z,19.1
2022-08-22T09:53:02.196Z,19.1
2022-08-22T09:54:02.182Z,19.3
2022-08-22T09:55:02.053Z,18.8
2022-08-22T09:56:01.978Z,19
2022-08-22T09:57:01.635Z,19.1
2022-08-22T09:58:01.615Z,19.5
2022-08-22T09:59:01.513Z,19.1
2022-08-22T10:00:02.002Z,19.2
2022-08-22T10:01:02.501Z,19.3
2022-08-22T10:02:01.451Z,19.5
2022-08-22T10:03:02.556Z,19.4
2022-08-22T10:04:01.531Z,19.8
2022-08-22T10:05:01.492Z,19.6
2022-08-22T10:06:01.912Z,19.5
2022-08-22T10:07:01.446Z,19.4
2022-08-22T10:08:01.648Z,19.4
2022-08-22T10:09:01.394Z,19.4
2022-08-22T10:10:01.575Z,19.8
2022-08-22T10:11:01.494Z,19.5
2022-08-22T10:12:01.458Z,19.5
2022-08-22T10:13:01.692Z,19.6
2022-08-22T10:14:01.850Z,19.6
2022-08-22T10:15:01.968Z,19.6
2022-08-22T10:16:02.353Z,19.5
2022-08-22T10:17:02.160Z,19.5
2022-08-22T10:18:02.131Z,19.6
2022-08-22T10:19:01.653Z,19.4
2022-08-22T10:20:02.105Z,19.3
2022-08-22T10:21:02.077Z,19.4
2022-08-22T10:22:01.940Z,19.4
2022-08-22T10:23:01.993Z,19.2
2022-08-22T10:24:02.082Z,19.2
2022-08-22T10:25:02.146Z,19.1
2022-08-22T10:26:01.579Z,19.4
2022-08-22T10:27:01.599Z,19.1
2022-08-22T10:28:01.569Z,19.1
2022-08-22T10:29:01.384Z,19.1
2022-08-22T10:30:02.374Z,19.5
2022-08-22T10:31:01.364Z,19.6
2022-08-22T10:32:06.087Z,19.5
2022-08-22T10:33:01.690Z,19.4
2022-08-22T10:34:02.180Z,19.5
2022-08-22T10:35:02.230Z,19.4
2022-08-22T10:36:04.702Z,19.7
2022-08-22T10:37:02.222Z,19.5
2022-08-22T10:38:01.517Z,19.5
2022-08-22T10:39:10.857Z,19.4
2022-08-22T10:40:02.353Z,19.5
2022-08-22T10:41:01.644Z,19.6
2022-08-22T10:42:03.002Z,19.5
2022-08-22T10:43:02.153Z,19.8
2022-08-22T10:44:03.880Z,19.6
2022-08-22T10:45:01.327Z,19.8
2022-08-22T10:46:01.761Z,19.5
2022-08-22T10:47:02.123Z,19.4
2022-08-22T10:48:01.639Z,19.4
2022-08-22T10:49:05.841Z,19.5
2022-08-22T10:50:01.586Z,19.5
2022-08-22T10:51:02.142Z,19.4
2022-08-22T10:52:13.613Z,19.5
2022-08-22T10:53:01.961Z,19.5
2022-08-22T10:54:01.973Z,19.4
2022-08-22T10:55:01.865Z,19.5
2022-08-22T10:56:01.874Z,19.4
2022-08-22T10:57:01.855Z,19.4
2022-08-22T10:58:01.360Z,19.4
2022-08-22T10:59:01.843Z,19.6
2022-08-22T11:00:01.971Z,19.4
2022-08-22T11:01:02.421Z,19.2
2022-08-22T11:02:01.895Z,19.3
2022-08-22T11:03:01.798Z,19.2
2022-08-22T11:04:01.658Z,19.4
2022-08-22T11:05:02.100Z,19.3
2022-08-22T11:06:01.621Z,19.3
2022-08-22T11:07:01.566Z,19.3
2022-08-22T11:08:01.376Z,19.3
2022-08-22T11:09:02.380Z,19.3
2022-08-22T11:10:02.194Z,19.2
2022-08-22T11:11:02.139Z,19.3
2022-08-22T11:12:01.675Z,19.3
2022-08-22T11:13:02.071Z,19.2
2022-08-22T11:14:02.026Z,19.2
2022-08-22T11:15:02.926Z,19.7
2022-08-22T11:16:04.240Z,19.4
2022-08-22T11:17:01.450Z,19.4
2022-08-22T11:18:01.947Z,19.7
2022-08-22T11:19:02.602Z,19.5
2022-08-22T11:20:01.566Z,19.6
2022-08-22T11:21:01.798Z,19.7
2022-08-22T11:22:01.783Z,19.4
2022-08-22T11:23:01.786Z,19.4
2022-08-22T11:24:01.425Z,19.6
2022-08-22T11:25:04.324Z,19.5
2022-08-22T11:26:04.868Z,19.5
2022-08-22T11:27:02.252Z,19.7
2022-08-22T11:28:02.119Z,19.7
2022-08-22T11:29:02.800Z,19.7
2022-08-22T11:30:02.334Z,19.7
2022-08-22T11:31:01.595Z,19.9
2022-08-22T11:32:05.697Z,19.8
2022-08-22T11:33:02.138Z,19.9
2022-08-22T11:34:02.304Z,19.7
2022-08-22T11:35:02.279Z,19.6
2022-08-22T11:36:04.550Z,19.8
2022-08-22T11:37:01.617Z,19.7
2022-08-22T11:38:01.489Z,19.8
2022-08-22T11:39:02.027Z,19.7
2022-08-22T11:40:02.162Z,19.8
2022-08-22T11:41:01.590Z,19.9
2022-08-22T11:42:01.420Z,19.7
2022-08-22T11:43:03.014Z,19.7
2022-08-22T11:44:02.999Z,19.6
2022-08-22T11:45:01.525Z,19.8
2022-08-22T11:46:01.812Z,20
2022-08-22T11:47:01.864Z,19.9
2022-08-22T11:48:01.704Z,19.8
2022-08-22T11:49:01.675Z,20
2022-08-22T11:50:01.364Z,20
2022-08-22T11:51:02.347Z,20.4
2022-08-22T11:52:01.370Z,20.1
2022-08-22T11:53:04.531Z,20.1
2022-08-22T11:54:01.797Z,20.5
2022-08-22T11:55:01.821Z,20.3
2022-08-22T11:56:05.347Z,20.2
2022-08-22T11:57:01.653Z,20.3
2022-08-22T11:58:01.629Z,20.3
2022-08-22T11:59:01.602Z,20.4
2022-08-22T12:00:01.465Z,20.4
2022-08-22T12:01:01.868Z,20.4
2022-08-22T12:02:02.244Z,20.3
2022-08-22T12:03:02.105Z,20.4
2022-08-22T12:04:03.279Z,20.3
2022-08-22T12:05:01.354Z,20.7
2022-08-22T12:06:02.237Z,20.5
2022-08-22T12:07:01.628Z,20.8
2022-08-22T12:08:01.429Z,20.7
2022-08-22T12:09:01.927Z,20.8
2022-08-22T12:10:01.517Z,20.8
2022-08-22T12:11:02.058Z,20.7
2022-08-22T12:12:01.363Z,20.7
2022-08-22T12:13:01.798Z,20.7
2022-08-22T12:14:02.277Z,20.7
2022-08-22T12:15:01.444Z,20.8
2022-08-22T12:16:02.256Z,20.8
2022-08-22T12:17:01.803Z,20.8
2022-08-22T12:18:02.118Z,20.6
2022-08-22T12:19:02.260Z,20.8
2022-08-22T12:20:14.927Z,20.8
2022-08-22T12:21:02.235Z,21
2022-08-22T12:22:02.299Z,21
2022-08-22T12:23:02.463Z,21.1
2022-08-22T12:24:06.081Z,21.5
2022-08-22T12:25:03.020Z,21.3
2022-08-22T12:26:02.163Z,21.2
2022-08-22T12:27:01.598Z,21.1
2022-08-22T12:28:01.752Z,21.2
2022-08-22T12:29:02.057Z,21.3
2022-08-22T12:30:01.998Z,21.2
2022-08-22T12:31:02.105Z,21.2
2022-08-22T12:32:02.361Z,21.2
2022-08-22T12:33:01.548Z,21.4
2022-08-22T12:34:01.457Z,21.4
2022-08-22T12:35:01.859Z,21.4
2022-08-22T12:36:02.201Z,21.4
2022-08-22T12:37:02.063Z,21.5
2022-08-22T12:38:02.039Z,21.6
2022-08-22T12:39:02.027Z,21.4
2022-08-22T12:40:02.073Z,21.4
2022-08-22T12:41:02.143Z,21.5
2022-08-22T12:42:04.099Z,21.6
2022-08-22T12:43:02.216Z,21.7
2022-08-22T12:44:02.011Z,21.9
2022-08-22T12:45:01.908Z,21.6
2022-08-22T12:46:01.909Z,21.9
2022-08-22T12:47:01.864Z,22.2
2022-08-22T12:48:01.568Z,22.3
2022-08-22T12:49:05.533Z,22.3
2022-08-22T12:50:01.509Z,22.1
2022-08-22T12:51:01.895Z,22.1
2022-08-22T12:52:04.404Z,22
2022-08-22T12:53:02.266Z,22
2022-08-22T12:54:04.412Z,22
2022-08-22T12:55:01.487Z,21.9
2022-08-22T12:56:01.496Z,21.9
2022-08-22T12:57:01.569Z,21.9
2022-08-22T12:58:01.613Z,21.7
2022-08-22T12:59:01.699Z,21.7
2022-08-22T13:00:01.813Z,21.9
2022-08-22T13:01:01.507Z,21.9
2022-08-22T13:02:01.627Z,21.9
2022-08-22T13:03:01.889Z,22
2022-08-22T13:04:01.944Z,22.1
2022-08-22T13:05:01.932Z,22.2
2022-08-22T13:06:01.824Z,22.3
2022-08-22T13:07:01.702Z,22.2
2022-08-22T13:08:04.228Z,22.2
2022-08-22T13:09:02.196Z,22.1
2022-08-22T13:10:03.096Z,22.2
2022-08-22T13:11:01.438Z,22.1
2022-08-22T13:12:02.572Z,22.2
2022-08-22T13:13:03.874Z,22.2
2022-08-22T13:14:01.399Z,22
2022-08-22T13:15:02.510Z,22.2
2022-08-22T13:16:02.225Z,22.2
2022-08-22T13:17:01.609Z,22.2
2022-08-22T13:18:13.462Z,22.1
2022-08-22T13:19:07.529Z,22.2
2022-08-22T13:20:02.263Z,22.2
2022-08-22T13:21:02.135Z,22.2
2022-08-22T13:22:02.015Z,22.1
2022-08-22T13:23:01.788Z,22.3
2022-08-22T13:24:02.055Z,22.2